Terminal Aerodrome Forecast
Issued by NWS

Home | Current Version | Previous Version | Graphics & Text | Print | Product List | Glossary On
Versions: 1 2 3 4 5 6 7 8 9 10 11 12
000
FTUS43 KBIS 191100
TAFMOT
TAF
KMOT 191126Z 1912/2012 27009KT P6SM SKC
     FM191700 30010KT P6SM SKC
     FM200200 25005KT P6SM SKC
     FM200900 15005KT P6SM SKC=

USA.gov is the U.S. government's official web portal to all federal, state and local government web resources and services.